Time;durP1;ratioP1;P1;durP2;ratioP2;P2;SDS_P1;SDS_P2;PMS_P1;PMS_P2;Temp;Humidity;BMP_temperature;BMP_pressure;BME280_temperature;BME280_humidity;BME280_pressure;Samples;Min_cycle;Max_cycle;Signal;HPM_P1;HPM_P2
2022/12/27 00:00:50;;;;;;;10.02;6.13;;;;;;;11.28;100.00;102346.94;2099471;28;20068;-74
2022/12/27 00:02:12;;;;;;;7.97;4.68;;;;;;;11.25;100.00;102353.81;2102717;28;20636;-75
2022/12/27 00:03:33;;;;;;;12.60;5.60;;;;;;;11.28;100.00;102353.97;2102034;28;20055;-75
2022/12/27 00:04:55;;;;;;;8.82;4.22;;;;;;;11.27;100.00;102363.63;2102128;28;20063;-74
2022/12/27 00:06:20;;;;;;;5.13;2.67;;;;;;;11.21;100.00;102349.28;2102031;28;20051;-74
2022/12/27 00:07:42;;;;;;;8.63;3.50;;;;;;;11.15;100.00;102353.50;2104999;28;20047;-75
2022/12/27 00:09:05;;;;;;;4.40;2.40;;;;;;;11.13;100.00;102362.19;2101839;28;20036;-75
2022/12/27 00:10:26;;;;;;;4.10;2.55;;;;;;;11.09;100.00;102358.50;2101993;28;20055;-75
2022/12/27 00:11:49;;;;;;;6.47;3.45;;;;;;;11.08;100.00;102356.72;2101882;28;20097;-74
2022/12/27 00:13:10;;;;;;;5.35;2.50;;;;;;;11.10;100.00;102349.75;2102641;28;20546;-75
2022/12/27 00:14:32;;;;;;;3.03;1.88;;;;;;;11.14;100.00;102351.69;2096259;28;20075;-74
2022/12/27 00:16:01;;;;;;;5.53;2.90;;;;;;;11.19;100.00;102355.41;2087932;28;20053;-74
2022/12/27 00:17:23;;;;;;;5.40;2.90;;;;;;;11.24;100.00;102360.84;2101331;28;20052;-75
2022/12/27 00:18:46;;;;;;;7.50;2.90;;;;;;;11.31;100.00;102356.69;2087915;28;20056;-75
2022/12/27 00:20:08;;;;;;;5.00;2.30;;;;;;;11.36;100.00;102358.69;2100460;28;20059;-75
2022/12/27 00:21:31;;;;;;;7.28;3.53;;;;;;;11.42;100.00;102358.03;2098255;28;20048;-75
2022/12/27 00:22:52;;;;;;;5.15;3.20;;;;;;;11.46;100.00;102359.94;2090597;28;20045;-75
2022/12/27 00:24:14;;;;;;;5.15;2.83;;;;;;;11.46;100.00;102359.94;2093705;28;20048;-75
2022/12/27 00:25:37;;;;;;;6.82;3.00;;;;;;;11.44;100.00;102351.94;2099943;28;20906;-75
2022/12/27 00:26:58;;;;;;;3.63;2.00;;;;;;;11.38;100.00;102359.63;2106422;28;20044;-75
2022/12/27 00:28:21;;;;;;;4.78;2.10;;;;;;;11.28;100.00;102351.31;2102024;28;20683;-74
2022/12/27 00:29:43;;;;;;;5.78;2.10;;;;;;;11.22;100.00;102353.72;2106762;28;20047;-75
2022/12/27 00:31:07;;;;;;;4.13;1.67;;;;;;;11.15;100.00;102355.22;2093592;28;20056;-75
2022/12/27 00:32:29;;;;;;;6.28;2.40;;;;;;;11.10;100.00;102355.03;2099108;28;20048;-75
2022/12/27 00:33:54;;;;;;;4.97;2.28;;;;;;;11.07;100.00;102360.22;2101473;28;20048;-75
2022/12/27 00:35:16;;;;;;;4.43;2.65;;;;;;;11.05;100.00;102360.97;2106575;28;20055;-75
2022/12/27 00:36:39;;;;;;;5.55;2.42;;;;;;;11.02;100.00;102356.50;2099957;28;20050;-75
2022/12/27 00:38:00;;;;;;;5.85;2.65;;;;;;;11.01;100.00;102352.03;2099363;28;20056;-75
2022/12/27 00:39:23;;;;;;;6.85;2.40;;;;;;;11.02;100.00;102355.59;2108759;28;20044;-75
2022/12/27 00:40:45;;;;;;;6.32;2.30;;;;;;;11.04;100.00;102349.50;2098777;28;20115;-75
2022/12/27 00:42:07;;;;;;;5.18;2.15;;;;;;;11.06;100.00;102352.22;2097526;28;20717;-75
2022/12/27 00:43:28;;;;;;;3.58;2.10;;;;;;;11.09;100.00;102352.34;2093445;28;20054;-75
2022/12/27 00:44:51;;;;;;;7.32;2.20;;;;;;;11.10;100.00;102349.75;2089701;28;20044;-75
2022/12/27 00:46:14;;;;;;;5.65;2.25;;;;;;;11.11;100.00;102348.91;2099284;28;20052;-75
2022/12/27 00:47:37;;;;;;;5.00;3.13;;;;;;;11.10;100.00;102348.84;2100943;28;20566;-75
2022/12/27 00:48:58;;;;;;;5.22;2.67;;;;;;;11.09;100.00;102353.22;2094629;28;20064;-75
2022/12/27 00:50:20;;;;;;;5.13;2.55;;;;;;;11.09;100.00;102361.16;2106619;28;20063;-75
2022/12/27 00:51:41;;;;;;;4.38;2.15;;;;;;;11.09;100.00;102355.88;2101744;28;20043;-74
2022/12/27 00:53:05;;;;;;;4.63;2.20;;;;;;;11.08;100.00;102351.44;2101347;28;20102;-74
2022/12/27 00:54:27;;;;;;;5.47;1.80;;;;;;;11.08;100.00;102351.44;2101339;28;20048;-74
2022/12/27 00:55:48;;;;;;;4.82;1.70;;;;;;;11.09;100.00;102347.06;2102033;28;20040;-74
2022/12/27 00:57:11;;;;;;;3.42;1.80;;;;;;;11.08;100.00;102353.19;2093625;28;20147;-75
2022/12/27 00:58:32;;;;;;;5.00;1.92;;;;;;;11.08;100.00;102343.53;2093206;28;20044;-75
2022/12/27 00:59:54;;;;;;;3.78;1.80;;;;;;;11.06;100.00;102345.19;2101109;28;20499;-74
2022/12/27 01:01:20;;;;;;;4.25;1.60;;;;;;;11.02;100.00;102343.28;2102151;28;20056;-74
2022/12/27 01:02:43;;;;;;;5.30;1.63;;;;;;;10.98;100.00;102343.09;2103819;28;20616;-75
2022/12/27 01:04:06;;;;;;;4.22;1.50;;;;;;;10.98;100.00;102340.44;2103454;28;20040;-74
2022/12/27 01:05:27;;;;;;;3.35;1.73;;;;;;;10.98;100.00;102341.34;2103355;28;20040;-74
2022/12/27 01:06:49;;;;;;;5.50;1.90;;;;;;;10.99;100.00;102340.50;2094802;28;20070;-75
2022/12/27 01:08:11;;;;;;;4.03;1.70;;;;;;;10.99;100.00;102343.16;2100308;28;20040;-75
2022/12/27 01:09:33;;;;;;;3.65;1.70;;;;;;;10.98;100.00;102336.06;2086856;28;20059;-75
2022/12/27 01:10:55;;;;;;;4.05;2.00;;;;;;;11.01;100.00;102330.00;2092334;28;20078;-75
2022/12/27 01:12:17;;;;;;;8.05;4.20;;;;;;;11.03;100.00;102333.59;2086668;28;20045;-74
2022/12/27 01:13:39;;;;;;;9.45;5.47;;;;;;;11.04;100.00;102340.69;2092362;28;20105;-75
2022/12/27 01:15:01;;;;;;;10.57;6.45;;;;;;;11.03;100.00;102326.56;2094983;28;20061;-74
2022/12/27 01:16:25;;;;;;;8.27;4.03;;;;;;;11.04;100.00;102328.38;2095194;28;20063;-75
2022/12/27 01:17:48;;;;;;;5.70;2.83;;;;;;;11.03;100.00;102321.28;2103581;28;20404;-74
2022/12/27 01:19:10;;;;;;;5.70;2.78;;;;;;;10.99;100.00;102321.09;2094595;28;20052;-74
2022/12/27 01:20:32;;;;;;;4.38;2.47;;;;;;;11.00;100.00;102322.91;2095594;28;20040;-74
2022/12/27 01:21:54;;;;;;;2.83;1.95;;;;;;;11.00;100.00;102312.34;2098170;28;20051;-75
2022/12/27 01:23:16;;;;;;;5.35;1.75;;;;;;;10.99;100.00;102318.47;2109075;28;20059;-75
2022/12/27 01:24:39;;;;;;;2.75;1.65;;;;;;;10.95;100.00;102317.47;2108227;28;20044;-74
2022/12/27 01:26:00;;;;;;;4.32;2.38;;;;;;;10.92;100.00;102312.03;2102816;28;20048;-75
2022/12/27 01:27:22;;;;;;;;;;;;;;;10.83;100.00;102310.78;2107159;28;20515;-75
2022/12/27 01:28:45;;;;;;;4.43;1.92;;;;;;;10.83;100.00;102311.66;2104788;28;19920;-74
2022/12/27 01:30:09;;;;;;;4.00;2.28;;;;;;;10.81;100.00;102309.81;2112024;28;20044;-75
2022/12/27 01:31:33;;;;;;;9.32;4.90;;;;;;;10.77;100.00;102301.75;2110491;28;20047;-75
2022/12/27 01:32:54;;;;;;;6.65;3.88;;;;;;;10.71;100.00;102304.16;2102840;28;20162;-75
2022/12/27 01:34:17;;;;;;;23.77;21.48;;;;;;;10.60;100.00;102302.84;2111467;28;20043;-75
2022/12/27 01:35:38;;;;;;;44.80;40.45;;;;;;;10.54;100.00;102301.69;2110312;28;20052;-74
2022/12/27 01:37:01;;;;;;;11.32;8.00;;;;;;;10.49;100.00;102301.53;2103060;28;20047;-74
2022/12/27 01:38:22;;;;;;;9.40;6.32;;;;;;;10.51;100.00;102298.91;2109367;27;20040;-75
2022/12/27 01:39:44;;;;;;;7.63;5.10;;;;;;;10.52;100.00;102306.91;2099469;28;20129;-74
2022/12/27 01:42:51;;;;;;;4.40;2.20;;;;;;;10.69;100.00;102297.94;2108557;28;20052;-74
2022/12/27 01:44:52;;;;;;;3.67;1.88;;;;;;;10.82;100.00;102299.31;2099803;28;20063;-75
2022/12/27 01:46:14;;;;;;;3.53;2.10;;;;;;;10.86;100.00;102290.66;2108247;28;20135;-75
2022/12/27 01:47:46;;;;;;;4.68;2.75;;;;;;;10.85;100.00;102287.97;2103175;28;20060;-74
2022/12/27 01:49:10;;;;;;;4.95;2.80;;;;;;;10.81;100.00;102286.97;2103948;28;20040;-75
2022/12/27 01:50:35;;;;;;;8.43;5.20;;;;;;;10.74;100.00;102284.91;2098059;28;20056;-74
2022/12/27 01:51:59;;;;;;;4.82;3.33;;;;;;;10.65;100.00;102285.44;2099273;28;20067;-75
2022/12/27 01:53:24;;;;;;;6.72;3.75;;;;;;;10.58;100.00;102275.47;2100813;28;20051;-74
2022/12/27 01:54:45;;;;;;;6.32;3.80;;;;;;;10.50;100.00;102278.66;2100840;28;20036;-74
2022/12/27 01:56:09;;;;;;;;;;;;;;;10.37;100.00;102291.34;2101106;28;20102;-74
2022/12/27 01:57:31;;;;;;;10.45;5.80;;;;;;;10.31;100.00;102284.91;2117742;27;19919;-74
2022/12/27 01:58:57;;;;;;;;;;;;;;;10.26;100.00;102284.72;2109254;28;20047;-74
2022/12/27 02:00:18;;;;;;;13.40;7.43;;;;;;;10.28;100.00;102290.97;2105869;27;20485;-74
2022/12/27 02:01:43;;;;;;;;;;;;;;;10.29;100.00;102289.25;2106058;28;20059;-74
2022/12/27 02:03:06;;;;;;;7.43;2.80;;;;;;;10.31;100.00;102288.44;2103800;28;20323;-74
2022/12/27 02:04:32;;;;;;;5.78;3.03;;;;;;;10.34;100.00;102288.59;2117634;27;20066;-74
2022/12/27 02:05:54;;;;;;;8.30;5.63;;;;;;;10.34;100.00;102283.31;2114100;28;20430;-74
2022/12/27 02:07:16;;;;;;;32.08;29.02;;;;;;;10.37;100.00;102279.91;2109724;28;20579;-74
2022/12/27 02:08:43;;;;;;;40.55;36.78;;;;;;;10.36;100.00;102279.00;2106643;28;20051;-74
2022/12/27 02:10:06;;;;;;;82.90;75.97;;;;;;;10.31;100.00;102283.16;2103651;28;20564;-74
2022/12/27 02:13:11;;;;;;;11.25;9.35;;;;;;;10.20;100.00;102279.19;2104152;28;20052;-74
2022/12/27 02:14:35;;;;;;;39.30;35.80;;;;;;;10.16;100.00;102279.88;2090065;28;20114;-74
2022/12/27 02:15:57;;;;;;;39.58;36.17;;;;;;;10.14;100.00;102283.28;2103180;28;20051;-75
2022/12/27 02:17:26;;;;;;;30.25;27.52;;;;;;;10.14;100.00;102278.91;2104313;28;20044;-74
2022/12/27 02:18:51;;;;;;;13.80;11.32;;;;;;;10.13;100.00;102279.75;2099479;28;20040;-74
2022/12/27 02:20:16;;;;;;;16.27;14.43;;;;;;;10.13;100.00;102281.47;2109950;28;20044;-75
2022/12/27 02:21:59;;;;;;;18.67;16.88;;;;;;;10.10;100.00;102279.63;2100993;28;20044;-74
2022/12/27 02:24:05;;;;;;;10.98;8.50;;;;;;;10.05;100.00;102281.16;2105454;28;20718;-74
2022/12/27 02:25:43;;;;;;;14.93;9.18;;;;;;;10.02;100.00;102278.41;2111420;28;20551;-75
2022/12/27 02:27:13;;;;;;;11.57;7.68;;;;;;;10.00;100.00;102274.78;2102385;28;20062;-74
2022/12/27 02:29:05;;;;;;;11.30;7.70;;;;;;;9.95;100.00;102281.63;2107299;28;20035;-74
2022/12/27 02:30:32;;;;;;;5.95;4.00;;;;;;;9.90;100.00;102278.78;2109488;28;20032;-74
2022/12/27 02:31:58;;;;;;;5.47;2.95;;;;;;;9.90;100.00;102283.16;2109509;28;20040;-75
2022/12/27 02:33:25;;;;;;;6.72;2.80;;;;;;;9.88;100.00;102280.47;2101062;28;20098;-74
2022/12/27 02:34:57;;;;;;;5.65;2.00;;;;;;;9.88;100.00;102279.56;2109383;28;20403;-74
2022/12/27 02:36:25;;;;;;;4.43;1.88;;;;;;;9.87;100.00;102288.28;2103456;28;20048;-74
2022/12/27 02:37:52;;;;;;;2.90;1.70;;;;;;;9.87;100.00;102289.19;2102780;28;20526;-75
2022/12/27 02:39:15;;;;;;;5.53;2.40;;;;;;;9.88;100.00;102292.75;2093112;28;20056;-75
2022/12/27 02:53:17;;;;;;;27.05;16.52;;;;;;;9.59;100.00;102275.66;2071162;28;20049;-75
2022/12/27 02:54:53;;;;;;;10.00;6.28;;;;;;;9.56;100.00;102275.53;2077563;28;20041;-74
2022/12/27 02:58:18;;;;;;;;;;;;;;;9.44;100.00;102283.81;2105754;28;20067;-75
2022/12/27 03:03:43;;;;;;;5.07;2.55;;;;;;;9.42;100.00;102277.56;2105619;28;20089;-74
2022/12/27 03:05:15;;;;;;;5.13;2.63;;;;;;;9.43;100.00;102281.09;2103479;28;20048;-75
2022/12/27 03:06:52;;;;;;;5.15;2.50;;;;;;;9.42;100.00;102272.28;2120788;27;20050;-75
2022/12/27 03:08:24;;;;;;;6.65;2.40;;;;;;;9.42;100.00;102276.66;2110461;28;20534;-75
2022/12/27 03:15:55;;;;;;;10.98;6.80;;;;;;;9.33;100.00;102270.94;2096771;28;20083;-75
2022/12/27 03:17:27;;;;;;;15.57;10.10;;;;;;;9.26;100.00;102271.50;2100180;28;20549;-74
2022/12/27 03:19:13;;;;;;;6.28;4.13;;;;;;;9.23;100.00;102271.38;2110842;28;20047;-75
2022/12/27 03:25:44;;;;;;;5.75;2.30;;;;;;;9.23;100.00;102284.56;2113338;28;20044;-74
2022/12/27 03:27:17;;;;;;;7.43;2.70;;;;;;;9.25;100.00;102278.53;2101390;28;20070;-75
2022/12/27 03:33:47;;;;;;;5.63;3.08;;;;;;;9.14;100.00;102295.56;2096184;28;20109;-74
2022/12/27 03:35:14;;;;;;;7.30;4.50;;;;;;;9.12;100.00;102290.22;2110869;28;20384;-74
2022/12/27 03:38:16;;;;;;;12.10;7.88;;;;;;;9.11;100.00;102295.44;2102437;28;20047;-74
2022/12/27 03:39:46;;;;;;;10.85;6.72;;;;;;;9.11;100.00;102293.72;2108627;28;20040;-74
2022/12/27 03:43:13;;;;;;;8.68;4.00;;;;;;;9.10;100.00;102301.53;2105391;28;20059;-75
2022/12/27 03:44:35;;;;;;;10.00;6.25;;;;;;;9.06;100.00;102299.56;2104256;28;20520;-74
2022/12/27 03:47:49;;;;;;;8.57;4.90;;;;;;;9.09;100.00;102305.00;2095845;28;20120;-75
2022/12/27 03:49:20;;;;;;;7.25;4.00;;;;;;;9.14;100.00;102298.19;2108594;28;20051;-75
2022/12/27 03:50:49;;;;;;;12.00;9.10;;;;;;;9.18;100.00;102310.72;2091794;28;20395;-75
2022/12/27 03:52:17;;;;;;;21.70;18.13;;;;;;;9.18;100.00;102300.16;2104003;28;20035;-75
2022/12/27 03:53:42;;;;;;;15.63;12.25;;;;;;;9.16;100.00;102305.34;2098001;28;20044;-75
2022/12/27 03:55:06;;;;;;;6.60;4.28;;;;;;;9.14;100.00;102298.19;2111124;28;20036;-74
2022/12/27 03:56:28;;;;;;;6.07;3.50;;;;;;;9.13;100.00;102299.94;2101837;28;20044;-74
2022/12/27 03:57:51;;;;;;;5.22;2.55;;;;;;;9.13;100.00;102299.94;2099638;28;20052;-75
2022/12/27 03:59:12;;;;;;;4.30;2.70;;;;;;;9.13;100.00;102302.56;2098308;28;20148;-75
2022/12/27 04:00:35;;;;;;;6.75;5.00;;;;;;;9.14;100.00;102300.84;2107419;28;20035;-74
2022/12/27 04:01:58;;;;;;;9.93;7.53;;;;;;;9.14;100.00;102298.19;2102142;28;20565;-75
2022/12/27 04:03:21;;;;;;;15.10;13.25;;;;;;;9.12;100.00;102300.75;2106133;28;20503;-75
2022/12/27 04:04:43;;;;;;;94.03;85.18;;;;;;;9.07;100.00;102299.66;2110544;28;20126;-74
2022/12/27 04:06:05;;;;;;;87.40;79.38;;;;;;;9.06;100.00;102297.84;2110420;28;20051;-74
2022/12/27 04:07:28;;;;;;;23.25;20.77;;;;;;;9.09;100.00;102299.72;2098364;28;20051;-75
2022/12/27 04:35:31;;;;;;;17.15;9.40;;;;;;;8.99;100.00;102322.09;2112744;28;20047;-75
2022/12/27 04:36:53;;;;;;;14.50;9.35;;;;;;;9.01;100.00;102316.91;2103689;28;20063;-75
2022/12/27 04:38:15;;;;;;;17.15;11.98;;;;;;;9.02;100.00;102321.34;2109804;28;20046;-74
2022/12/27 04:39:37;;;;;;;18.23;12.25;;;;;;;9.05;100.00;102318.88;2101039;28;20055;-74
2022/12/27 04:56:04;;;;;;;12.15;8.50;;;;;;;9.05;100.00;102322.41;2106124;28;20129;-74
2022/12/27 04:57:26;;;;;;;14.15;10.45;;;;;;;9.05;100.00;102324.13;2103895;28;20043;-75
2022/12/27 05:02:08;;;;;;;14.57;7.47;;;;;;;8.88;100.00;102323.34;2098407;28;20109;-75
2022/12/27 05:03:31;;;;;;;13.88;8.02;;;;;;;8.88;100.00;102322.44;2091879;28;20264;-74
2022/12/27 05:04:55;;;;;;;12.02;9.32;;;;;;;8.87;100.00;102323.25;2100796;28;20397;-75
2022/12/27 05:06:18;;;;;;;22.88;20.52;;;;;;;8.86;100.00;102327.63;2103729;28;20121;-74
2022/12/27 05:14:20;;;;;;;18.45;13.32;;;;;;;8.99;100.00;102315.97;2097201;28;20071;-75
2022/12/27 05:15:41;;;;;;;14.93;12.10;;;;;;;9.02;100.00;102316.97;2094873;28;20392;-74
2022/12/27 05:17:04;;;;;;;28.95;21.85;;;;;;;9.06;100.00;102323.28;2094836;28;20055;-75
2022/12/27 05:18:26;;;;;;;24.02;20.48;;;;;;;9.10;100.00;102330.53;2096024;28;20052;-75
2022/12/27 05:19:49;;;;;;;23.33;17.80;;;;;;;9.12;100.00;102324.47;2103087;28;20040;-75
2022/12/27 05:21:12;;;;;;;21.75;17.88;;;;;;;9.14;100.00;102321.91;2098989;28;20040;-74
2022/12/27 05:25:52;;;;;;;17.95;13.07;;;;;;;9.13;100.00;102325.38;2105543;28;20135;-75
2022/12/27 05:27:15;;;;;;;14.98;9.60;;;;;;;9.13;100.00;102325.38;2111810;28;20161;-74
2022/12/27 05:28:36;;;;;;;13.63;9.43;;;;;;;9.08;100.00;102322.53;2103307;28;20048;-75
2022/12/27 05:29:58;;;;;;;17.35;12.77;;;;;;;9.05;100.00;102322.41;2099246;28;20105;-75
2022/12/27 05:31:22;;;;;;;21.80;17.08;;;;;;;9.06;100.00;102325.91;2097416;28;20045;-75
2022/12/27 05:32:43;;;;;;;18.77;14.93;;;;;;;9.05;100.00;102327.69;2113692;27;20479;-74
2022/12/27 05:34:06;;;;;;;20.73;17.17;;;;;;;9.05;100.00;102326.78;2114055;28;20441;-75
2022/12/27 05:35:28;;;;;;;20.60;15.88;;;;;;;9.03;100.00;102323.16;2114337;28;20044;-75
2022/12/27 05:36:52;;;;;;;13.23;10.35;;;;;;;9.02;100.00;102323.97;2104671;28;20040;-74
2022/12/27 05:38:13;;;;;;;11.70;10.10;;;;;;;9.02;100.00;102321.34;2103989;28;20040;-74
2022/12/27 05:39:36;;;;;;;13.60;10.60;;;;;;;9.00;100.00;102318.63;2111597;28;20067;-74
2022/12/27 05:41:00;;;;;;;14.90;10.48;;;;;;;9.00;100.00;102323.91;2097689;28;20044;-74
2022/12/27 05:42:21;;;;;;;11.60;8.57;;;;;;;8.99;100.00;102321.22;2103386;28;20498;-74
2022/12/27 05:43:44;;;;;;;10.50;6.60;;;;;;;8.97;100.00;102325.50;2109398;28;20036;-74
2022/12/27 05:45:06;;;;;;;12.60;7.72;;;;;;;8.97;100.00;102329.03;2099138;28;20059;-74
2022/12/27 05:46:29;;;;;;;13.27;8.32;;;;;;;8.97;100.00;102328.13;2106978;28;20044;-74
2022/12/27 05:47:50;;;;;;;10.55;7.82;;;;;;;8.97;100.00;102328.13;2106635;28;20060;-74
2022/12/27 05:49:12;;;;;;;10.07;7.35;;;;;;;8.96;100.00;102334.22;2098274;28;20506;-75
2022/12/27 05:50:34;;;;;;;10.45;7.22;;;;;;;8.97;100.00;102341.31;2105942;28;20534;-74
2022/12/27 05:52:07;;;;;;;10.52;7.82;;;;;;;9.00;100.00;102328.25;2108408;28;20051;-74
2022/12/27 05:53:28;;;;;;;12.32;8.93;;;;;;;9.04;100.00;102340.78;2108991;28;20055;-74
2022/12/27 05:54:50;;;;;;;12.05;8.32;;;;;;;9.07;100.00;102327.72;2103489;28;20628;-75
2022/12/27 05:56:16;;;;;;;15.48;10.25;;;;;;;9.11;100.00;102332.31;2100219;28;20407;-75
2022/12/27 05:57:37;;;;;;;20.65;15.45;;;;;;;9.13;100.00;102334.19;2084693;28;20049;-74
2022/12/27 05:59:00;;;;;;;13.35;9.02;;;;;;;9.17;100.00;102332.59;2096581;28;20623;-74
2022/12/27 06:00:22;;;;;;;14.88;11.13;;;;;;;9.17;100.00;102325.63;2094870;28;20052;-75
2022/12/27 06:01:44;;;;;;;25.33;20.35;;;;;;;9.18;100.00;102334.41;2102891;28;20037;-74
2022/12/27 06:03:05;;;;;;;23.70;18.98;;;;;;;9.19;100.00;102330.94;2109144;28;20488;-74
2022/12/27 06:04:28;;;;;;;28.80;21.60;;;;;;;9.19;100.00;102333.56;2111525;28;20290;-74
2022/12/27 06:05:49;;;;;;;16.00;11.02;;;;;;;9.18;100.00;102340.59;2110969;28;20135;-75
2022/12/27 06:07:14;;;;;;;20.42;11.48;;;;;;;9.20;100.00;102332.72;2105644;28;20588;-74
2022/12/27 06:08:37;;;;;;;18.02;11.75;;;;;;;9.21;100.00;102337.19;2109286;28;20058;-74
2022/12/27 06:09:59;;;;;;;16.75;11.70;;;;;;;9.26;100.00;102335.66;2111242;28;20135;-75
2022/12/27 06:11:21;;;;;;;18.40;12.60;;;;;;;9.26;100.00;102335.66;2107443;28;20131;-74
2022/12/27 06:12:42;;;;;;;16.35;11.48;;;;;;;9.27;100.00;102337.47;2104875;28;20044;-74
2022/12/27 06:14:05;;;;;;;13.68;9.25;;;;;;;9.29;100.00;102343.72;2104942;27;20098;-74
2022/12/27 06:15:26;;;;;;;14.60;9.95;;;;;;;9.30;100.00;102345.53;2097953;28;20078;-75
2022/12/27 06:16:48;;;;;;;16.23;12.07;;;;;;;9.31;100.00;102342.06;2102076;28;20978;-76
2022/12/27 06:18:11;;;;;;;19.98;15.48;;;;;;;9.32;100.00;102349.09;2101420;28;20055;-75
2022/12/27 06:19:33;;;;;;;17.45;13.68;;;;;;;9.31;100.00;102347.31;2105212;27;20039;-74
2022/12/27 06:21:03;;;;;;;20.60;14.90;;;;;;;9.32;100.00;102349.09;2104155;28;20056;-75
2022/12/27 06:22:27;;;;;;;26.77;22.70;;;;;;;9.42;100.00;102350.44;2094895;28;20587;-75
2022/12/27 06:23:50;;;;;;;26.27;23.63;;;;;;;9.57;100.00;102357.31;2108289;28;20114;-75
2022/12/27 06:25:12;;;;;;;22.92;20.40;;;;;;;9.77;100.00;102358.22;2086598;28;20044;-75
2022/12/27 06:26:34;;;;;;;21.08;17.58;;;;;;;9.98;100.00;102363.50;2102322;28;20075;-74
2022/12/27 06:27:57;;;;;;;14.50;12.88;;;;;;;10.18;100.00;102365.31;2102131;28;20182;-75
2022/12/27 06:29:18;;;;;;;15.25;13.07;;;;;;;10.40;100.00;102359.22;2106691;28;20047;-75
2022/12/27 06:30:40;;;;;;;16.08;11.80;;;;;;;10.61;100.00;102357.47;2097938;28;20040;-74
2022/12/27 06:32:02;;;;;;;13.95;10.80;;;;;;;10.84;100.00;102366.31;2108441;28;20051;-75
2022/12/27 06:33:24;;;;;;;10.27;8.95;;;;;;;11.05;100.00;102361.88;2102637;28;20066;-75
2022/12/27 06:34:47;;;;;;;13.50;9.52;;;;;;;11.26;100.00;102361.81;2109629;28;20040;-75
2022/12/27 06:36:10;;;;;;;9.75;7.85;;;;;;;11.44;100.00;102357.22;2111648;28;20067;-76
2022/12/27 06:37:34;;;;;;;11.63;6.70;;;;;;;11.63;100.00;102355.25;2109730;28;20083;-74
2022/12/27 06:38:56;;;;;;;8.95;6.10;;;;;;;11.77;100.00;102357.59;2109027;28;20044;-75
2022/12/27 06:40:19;;;;;;;9.65;7.68;;;;;;;11.94;100.00;102356.50;2108093;28;20063;-75
2022/12/27 06:41:42;;;;;;;18.33;13.82;;;;;;;12.11;100.00;102357.06;2100405;28;20418;-74
2022/12/27 06:43:04;;;;;;;25.27;19.20;;;;;;;12.24;100.00;102356.63;2105659;28;20051;-74
2022/12/27 06:44:27;;;;;;;19.05;16.48;;;;;;;12.40;100.00;102350.13;2094237;28;20082;-74
2022/12/27 06:45:55;;;;;;;19.73;13.35;;;;;;;12.55;100.00;102355.91;2104332;27;20102;-75
2022/12/27 06:47:17;;;;;;;16.13;12.30;;;;;;;12.68;100.00;102354.56;2098817;28;20056;-75
2022/12/27 06:48:39;;;;;;;15.40;12.18;;;;;;;12.82;100.00;102357.66;2099780;28;20048;-74
2022/12/27 06:50:01;;;;;;;14.77;11.70;;;;;;;12.95;100.00;102349.25;2106069;28;20048;-74
2022/12/27 06:51:24;;;;;;;15.93;11.77;;;;;;;13.11;100.00;102349.78;2088641;28;20056;-74
2022/12/27 06:52:47;;;;;;;12.00;9.05;;;;;;;13.28;100.00;102354.72;2093080;28;20040;-75
2022/12/27 06:54:09;;;;;;;11.57;8.88;;;;;;;13.43;100.00;102350.78;2094306;28;20570;-75
2022/12/27 06:55:30;;;;;;;10.00;8.57;;;;;;;13.60;100.00;102345.97;2102727;28;20059;-75
2022/12/27 06:56:54;;;;;;;11.45;8.38;;;;;;;13.74;100.00;102352.56;2088761;28;20577;-75
2022/12/27 06:58:16;;;;;;;10.55;8.27;;;;;;;13.89;100.00;102353.00;2096123;28;20491;-74
2022/12/27 06:59:39;;;;;;;9.40;7.78;;;;;;;14.01;100.00;102344.47;2094125;28;20119;-74
2022/12/27 07:01:06;;;;;;;11.93;7.93;;;;;;;14.13;100.00;102342.13;2094746;28;20036;-74
2022/12/27 07:02:29;;;;;;;9.50;8.18;;;;;;;14.23;100.00;102336.22;2086398;28;20057;-75
2022/12/27 07:03:52;;;;;;;11.38;8.85;;;;;;;14.36;100.00;102345.41;2099676;28;20055;-74
2022/12/27 07:05:14;;;;;;;12.90;7.50;;;;;;;14.49;100.00;102336.00;2088434;28;20049;-74
2022/12/27 07:06:38;;;;;;;8.05;5.93;;;;;;;14.59;100.00;102341.56;2099893;28;20083;-74
2022/12/27 07:08:01;;;;;;;8.25;5.88;;;;;;;14.60;100.00;102345.13;2094265;28;20044;-74
2022/12/27 07:09:23;;;;;;;10.63;6.30;;;;;;;14.63;100.00;102338.16;2099898;28;20042;-74
2022/12/27 07:10:45;;;;;;;9.20;7.07;;;;;;;14.73;100.00;102331.28;2099373;28;20098;-74
2022/12/27 07:12:08;;;;;;;10.20;6.25;;;;;;;14.88;100.00;102334.31;2099243;28;20048;-74
2022/12/27 07:13:33;;;;;;;8.82;6.30;;;;;;;15.03;100.00;102337.28;2093732;28;20044;-74
2022/12/27 07:14:55;;;;;;;10.38;7.15;;;;;;;15.22;100.00;102340.38;2094454;28;20040;-74
2022/12/27 07:16:18;;;;;;;8.43;6.35;;;;;;;15.36;100.00;102338.94;2094090;28;20153;-75
2022/12/27 07:17:41;;;;;;;11.07;6.70;;;;;;;15.49;100.00;102339.19;2096503;28;20047;-75
2022/12/27 07:19:03;;;;;;;8.05;5.72;;;;;;;15.62;100.00;102335.03;2099791;28;20067;-75
2022/12/27 07:20:25;;;;;;;6.50;4.47;;;;;;;15.78;100.00;102330.94;2109805;28;20036;-74
2022/12/27 07:21:47;;;;;;;7.32;4.35;;;;;;;15.90;100.00;102329.41;2104183;28;20056;-74
2022/12/27 07:23:10;;;;;;;5.88;4.55;;;;;;;16.05;100.00;102335.88;2102815;28;20052;-74
2022/12/27 07:24:32;;;;;;;7.18;4.10;;;;;;;16.18;100.00;102330.81;2094169;28;20057;-74
2022/12/27 07:25:53;;;;;;;6.70;4.63;;;;;;;16.33;100.00;102336.44;2099434;28;20061;-75
2022/12/27 07:27:16;;;;;;;6.70;4.72;;;;;;;16.49;100.00;102334.00;2105285;28;20056;-75
2022/12/27 07:28:37;;;;;;;6.53;3.60;;;;;;;16.64;100.00;102328.94;2104405;28;20040;-75
2022/12/27 07:29:59;;;;;;;9.85;3.75;;;;;;;16.77;100.00;102332.72;2100106;28;20159;-75
2022/12/27 07:31:23;;;;;;;5.53;3.90;;;;;;;16.87;100.00;102332.00;2106096;27;20046;-75
2022/12/27 07:32:46;;;;;;;8.13;4.78;;;;;;;16.96;100.00;102327.66;2102299;28;20489;-75
2022/12/27 07:34:10;;;;;;;7.65;4.60;;;;;;;17.06;100.00;102326.03;2102481;28;20556;-75
2022/12/27 07:35:32;;;;;;;7.50;4.43;;;;;;;17.17;100.00;102326.19;2105716;28;20043;-74
2022/12/27 07:36:53;;;;;;;8.88;4.18;;;;;;;17.27;100.00;102326.31;2096713;28;20516;-74
2022/12/27 07:38:17;;;;;;;8.00;4.85;;;;;;;17.40;100.00;102330.94;2099510;28;20051;-75
2022/12/27 07:39:39;;;;;;;8.60;4.70;;;;;;;17.53;100.00;102329.31;2102336;28;20071;-74
2022/12/27 07:41:02;;;;;;;8.48;4.38;;;;;;;17.67;100.00;102330.41;2102411;28;20052;-74
2022/12/27 07:42:25;;;;;;;5.60;2.63;;;;;;;17.81;100.00;102333.25;2101297;28;20044;-75
2022/12/27 07:43:48;;;;;;;6.43;2.85;;;;;;;17.92;100.00;102332.47;2093877;28;20465;-74
2022/12/27 07:45:09;;;;;;;4.57;2.70;;;;;;;18.03;100.00;102327.25;2107693;28;20039;-75
2022/12/27 07:46:32;;;;;;;5.40;2.35;;;;;;;18.15;100.00;102334.50;2104940;28;20084;-75
2022/12/27 07:47:53;;;;;;;2.92;1.27;;;;;;;18.27;100.00;102337.28;2102199;28;20079;-75
2022/12/27 07:49:16;;;;;;;5.10;2.03;;;;;;;18.38;100.00;102337.41;2105850;28;20058;-75
2022/12/27 07:50:37;;;;;;;2.58;1.30;;;;;;;18.48;100.00;102339.25;2105332;28;20427;-75
2022/12/27 07:52:00;;;;;;;2.72;1.48;;;;;;;18.59;100.00;102332.25;2100572;28;20044;-75
2022/12/27 07:53:23;;;;;;;4.70;1.35;;;;;;;18.71;100.00;102329.66;2096858;28;20950;-75
2022/12/27 07:54:45;;;;;;;4.47;1.27;;;;;;;18.83;100.00;102336.91;2100079;28;20446;-75
2022/12/27 07:56:07;;;;;;;2.55;1.25;;;;;;;18.92;100.00;102329.81;2093537;28;20451;-75
2022/12/27 07:57:30;;;;;;;7.60;1.65;;;;;;;19.03;100.00;102328.09;2093422;28;20535;-75
2022/12/27 07:58:53;;;;;;;3.03;1.40;;;;;;;19.13;100.00;102325.47;2093069;28;20052;-75
2022/12/27 08:00:15;;;;;;;5.63;1.50;;;;;;;19.23;100.00;102317.47;2104867;28;20526;-75
2022/12/27 08:02:02;;;;;;;2.75;1.33;;;;;;;19.30;100.00;102321.97;2102008;28;20050;-75
2022/12/27 08:03:25;;;;;;;2.88;1.50;;;;;;;19.40;100.00;102320.25;2098856;28;20079;-76
2022/12/27 08:04:47;;;;;;;3.22;1.30;;;;;;;19.47;100.00;102319.44;2099286;28;20048;-75